Malcolm Mc Kinnon Airport Brunswick US
ICAO: KSSI
IATA: SSI
Category: Medium
Scheduled Services: No

Elevation: 19 ft
TransAlt. 18000 ft.

Airport Communications:
ASOS:118.525
JACKSONVILLE CNTR:126.75
CTAF/UNICOM:123.05

KSSI Zoom In..

Runways:

(A) RW 04 length 5584 ft width 100 ft
---- / hdg 41

(B) RW 16 length 3313 ft width 75 ft
---- / hdg 159

(C) RW 22 length 5584 ft width 100 ft
---- / hdg 221

(D) RW 34 length 3313 ft width 75 ft
---- / hdg 339

Location; KSSI
Day. 22 / Time. 23.53 Zulu
* Altimeter: 30.04
* Temperature: 16° c. 60.8°f.
* Wind from: 140° Speed 13 kn.
Dewpoint: 16° c.
Visibility: 10 Statute Miles.
Clouds: Clear (automated report).

KSSI 222353Z AUTO 14013KT 10SM CLR 16/16 A3004 RMK AO2 SLP173 T01610156 10217 20161 58006


Wind From 140°
Speed 13 kn.

YouTube Music Video
 
jpsmedia.com for Web Design  worldairports.se 2018   terms of use